createdAt,value
2019-05-14T14:16:35.080Z,29.90
2019-05-14T14:19:13.890Z,39.53
2019-05-14T14:21:49.442Z,36.75
2019-05-14T14:24:35.063Z,37.95
2019-05-14T14:27:12.860Z,41.13
2019-05-14T14:29:50.813Z,32.42
2019-05-14T14:32:35.276Z,35.03
2019-05-14T14:35:14.417Z,37.00
2019-05-14T14:37:49.347Z,35.00
2019-05-14T14:40:23.115Z,38.50
2019-05-14T14:42:59.061Z,38.02
2019-05-14T14:45:30.579Z,32.53
2019-05-14T14:48:02.418Z,30.88
2019-05-14T14:50:35.450Z,27.05
2019-05-14T14:53:12.302Z,29.72
2019-05-14T14:55:52.238Z,29.18
2019-05-14T14:58:33.167Z,35.63
2019-05-14T15:01:14.107Z,29.63
2019-05-14T15:03:54.050Z,32.93
2019-05-14T15:06:30.538Z,37.45
2019-05-14T15:09:01.163Z,36.35
2019-05-14T15:11:35.477Z,37.25
2019-05-14T15:14:08.450Z,35.73
2019-05-14T15:16:41.763Z,35.90
2019-05-14T15:19:14.400Z,35.92
2019-05-14T15:21:48.920Z,40.03
2019-05-14T15:24:37.465Z,42.78
2019-05-14T15:27:41.028Z,33.90
2019-05-14T15:44:55.834Z,38.00
2019-05-14T15:47:23.622Z,32.85
2019-05-14T15:50:21.186Z,43.70
2019-05-14T15:52:57.195Z,31.87
2019-05-14T15:55:38.343Z,36.00
2019-05-14T16:00:49.031Z,27.22
2019-05-14T16:03:21.715Z,33.50
2019-05-14T16:06:00.898Z,40.03
2019-05-14T16:08:34.779Z,33.43
2019-05-14T16:11:11.318Z,35.92
2019-05-14T16:13:42.863Z,30.62
2019-05-14T16:16:15.358Z,29.27
2019-05-14T16:18:57.356Z,34.00
2019-05-14T16:21:38.598Z,28.38
2019-05-14T16:24:10.499Z,30.35
2019-05-14T16:26:45.037Z,26.85
2019-05-14T16:29:41.798Z,31.75
2019-05-14T16:32:04.754Z,28.73
2019-05-14T16:34:40.984Z,28.95
2019-05-14T16:37:21.867Z,29.23
2019-05-14T16:40:03.753Z,25.02
2019-05-14T16:42:54.778Z,24.90
2019-05-14T16:45:28.965Z,26.63
2019-05-14T16:48:14.462Z,30.88
2019-05-14T16:50:58.298Z,23.92
2019-05-14T16:53:31.506Z,22.55
2019-05-14T16:56:08.230Z,24.15
2019-05-14T16:58:50.378Z,22.42
2019-05-14T17:01:33.675Z,24.85
2019-05-14T17:04:13.226Z,22.67
2019-05-14T17:06:49.346Z,19.67
2019-05-14T17:09:22.446Z,21.75
2019-05-14T17:11:59.018Z,19.40
2019-05-14T17:14:38.947Z,21.52
2019-05-14T17:17:14.251Z,19.30
2019-05-14T17:19:49.368Z,26.52
2019-05-14T17:22:32.663Z,19.55
2019-05-14T17:25:10.204Z,20.00
2019-05-14T17:27:44.647Z,20.48
2019-05-14T17:30:29.063Z,19.02
2019-05-14T17:33:01.358Z,23.47
2019-05-14T17:35:40.937Z,20.88
2019-05-14T17:38:25.173Z,18.25
2019-05-14T17:40:59.648Z,21.10
2019-05-14T17:43:32.253Z,23.47
2019-05-14T17:46:09.744Z,18.92
2019-05-14T17:48:42.111Z,19.17
2019-05-14T17:54:06.340Z,16.70
2019-05-14T17:56:39.396Z,20.50
2019-05-14T17:59:12.820Z,16.73
2019-05-14T18:01:47.035Z,18.67
2019-05-14T18:04:28.399Z,23.62
2019-05-14T18:07:02.327Z,17.77
2019-05-14T18:09:43.887Z,25.48
2019-05-14T18:12:19.018Z,23.07
2019-05-14T18:14:52.370Z,24.27
2019-05-14T18:17:25.924Z,16.70
2019-05-14T18:19:59.576Z,17.02
2019-05-14T18:22:45.787Z,15.43
2019-05-14T18:25:18.774Z,15.63
2019-05-14T18:27:51.426Z,18.60
2019-05-14T18:30:24.398Z,16.82
2019-05-14T18:32:58.775Z,21.93
2019-05-14T18:35:43.999Z,15.23
2019-05-14T18:38:19.468Z,21.70
2019-05-14T18:40:58.995Z,18.55
2019-05-14T18:43:38.976Z,18.20
2019-05-14T18:46:11.782Z,18.37
2019-05-14T18:48:44.927Z,22.37
2019-05-14T18:51:24.289Z,17.65
2019-05-14T18:54:00.527Z,19.30
2019-05-14T18:56:38.224Z,19.55
2019-05-14T18:59:11.229Z,15.53
2019-05-14T19:04:38.313Z,14.90
2019-05-14T19:07:15.385Z,18.20
2019-05-14T19:09:52.071Z,19.90
2019-05-14T19:12:29.818Z,19.30
2019-05-14T19:15:09.873Z,16.48
2019-05-14T19:17:42.573Z,20.57
2019-05-14T19:20:22.575Z,17.50
2019-05-14T19:22:54.533Z,15.45
2019-05-14T19:25:30.176Z,19.17
2019-05-14T19:28:10.215Z,15.93
2019-05-14T19:30:55.974Z,30.75
2019-05-14T19:33:28.957Z,19.57
2019-05-14T19:36:01.830Z,26.52
2019-05-14T19:38:35.692Z,15.80
2019-05-14T19:41:14.252Z,19.48
2019-05-14T19:43:55.929Z,24.55
2019-05-14T19:46:44.858Z,20.52
2019-05-14T19:49:31.873Z,29.87
2019-05-14T19:52:12.845Z,19.02
2019-05-14T19:54:45.541Z,28.32
2019-05-14T19:57:18.714Z,18.65
2019-05-14T19:59:53.705Z,33.33
2019-05-14T20:02:28.675Z,27.90
2019-05-14T20:05:08.679Z,33.67
2019-05-14T20:07:40.619Z,25.72
2019-05-14T20:10:20.871Z,24.60
2019-05-14T20:13:00.303Z,38.20
2019-05-14T20:15:40.087Z,27.75
2019-05-14T20:18:13.559Z,39.98
2019-05-14T20:20:49.062Z,23.77
2019-05-14T20:23:23.219Z,43.08
2019-05-14T20:26:03.161Z,28.95
2019-05-14T20:28:36.076Z,44.05
2019-05-14T20:31:10.693Z,35.63
2019-05-14T20:33:48.722Z,29.27
2019-05-14T20:36:39.487Z,58.87
2019-05-14T20:39:12.957Z,41.83
2019-05-14T20:41:52.009Z,60.95
2019-05-14T20:44:30.331Z,36.00
2019-05-14T20:47:04.141Z,61.60
2019-05-14T20:49:42.345Z,49.10
2019-05-14T20:52:32.848Z,67.85
2019-05-14T20:55:11.989Z,65.90
2019-05-14T20:57:50.807Z,63.78
2019-05-14T21:00:41.229Z,71.70
2019-05-14T21:03:10.883Z,52.95
2019-05-14T21:05:44.127Z,73.30
2019-05-14T21:08:23.977Z,51.58
2019-05-14T21:10:58.761Z,68.40
2019-05-14T21:13:32.311Z,56.58
2019-05-14T21:16:18.164Z,67.90
2019-05-14T21:18:59.199Z,70.10
2019-05-14T21:21:31.901Z,68.52
2019-05-14T21:24:23.938Z,72.65
2019-05-14T21:29:38.714Z,76.72
2019-05-14T21:32:11.232Z,55.83
2019-05-14T21:34:51.847Z,61.55
2019-05-14T21:37:24.179Z,73.47
2019-05-14T21:39:58.293Z,72.00
2019-05-14T21:42:40.049Z,56.05
2019-05-14T21:45:13.371Z,65.15
2019-05-14T21:47:49.324Z,76.65
2019-05-14T21:50:29.795Z,53.50
2019-05-14T21:53:02.592Z,66.95
2019-05-14T21:55:38.599Z,59.40
2019-05-14T21:58:19.598Z,66.60
2019-05-14T22:00:53.308Z,54.23
2019-05-14T22:03:33.914Z,65.28
2019-05-14T22:06:08.839Z,73.80
2019-05-14T22:08:43.786Z,70.37
2019-05-14T22:11:22.779Z,63.00
2019-05-14T22:14:03.745Z,57.15
2019-05-14T22:16:43.507Z,68.90
2019-05-14T22:19:28.848Z,51.58
2019-05-14T22:22:04.645Z,62.25
2019-05-14T22:24:38.377Z,61.13
2019-05-14T22:27:11.384Z,69.40
2019-05-14T22:29:44.375Z,66.60
2019-05-14T22:32:23.861Z,65.20
2019-05-14T22:34:58.570Z,66.35
2019-05-14T22:37:32.393Z,57.20
2019-05-14T22:40:06.939Z,70.25
